Time;durP1;ratioP1;P1;durP2;ratioP2;P2;SDS_P1;SDS_P2;PMS_P1;PMS_P2;Temp;Humidity;BMP_temperature;BMP_pressure;BME280_temperature;BME280_humidity;BME280_pressure;Samples;Min_cycle;Max_cycle;Signal;HPM_P1;HPM_P2
2022/07/03 00:04:54;;;;;;;4.47;1.98;;;;;;;17.44;100.00;100478.38;20909418;28;20053;-68
2022/07/03 00:14:56;;;;;;;4.72;2.03;;;;;;;17.38;100.00;100490.06;20908782;28;20063;-68
2022/07/03 00:25:04;;;;;;;4.13;1.80;;;;;;;17.27;100.00;100478.22;20906963;28;20056;-68
2022/07/03 00:35:06;;;;;;;3.40;1.70;;;;;;;16.98;100.00;100475.00;20906085;28;20065;-68
2022/07/03 00:45:09;;;;;;;5.82;2.13;;;;;;;16.93;100.00;100479.63;20906261;28;20045;-68
2022/07/03 00:55:16;;;;;;;4.55;1.88;;;;;;;16.77;100.00;100489.06;20906219;28;20049;-68
2022/07/03 01:05:36;;;;;;;7.88;2.35;;;;;;;16.77;100.00;100500.53;20904313;28;20440;-67
2022/07/03 01:16:11;;;;;;;5.68;2.22;;;;;;;16.74;100.00;100499.78;20904342;28;20048;-67
2022/07/03 01:26:15;;;;;;;5.72;2.38;;;;;;;16.60;100.00;100502.94;20904302;28;20156;-68
2022/07/03 01:36:22;;;;;;;5.00;2.13;;;;;;;16.46;100.00;100484.97;20902487;28;20049;-68
2022/07/03 01:46:29;;;;;;;3.47;1.80;;;;;;;16.48;100.00;100475.22;20902355;28;20049;-68
2022/07/03 01:56:33;;;;;;;4.13;1.80;;;;;;;16.40;100.00;100482.56;20901212;28;20057;-68
2022/07/03 02:06:40;;;;;;;5.32;1.98;;;;;;;16.35;100.00;100476.59;20900140;28;20048;-67
2022/07/03 02:16:42;;;;;;;4.00;2.13;;;;;;;16.28;100.00;100470.66;20902674;28;20458;-67
2022/07/03 02:26:58;;;;;;;6.03;2.40;;;;;;;16.05;100.00;100479.47;20917533;28;20481;-67
2022/07/03 02:37:10;;;;;;;4.72;2.47;;;;;;;15.96;100.00;100482.47;20916221;28;20452;-67
2022/07/03 02:47:32;;;;;;;5.10;2.50;;;;;;;15.95;100.00;100483.34;20915636;28;20095;-68
2022/07/03 02:57:39;;;;;;;5.45;2.63;;;;;;;15.94;100.00;100489.56;20898960;28;20055;-67
2022/07/03 03:08:07;;;;;;;5.90;2.65;;;;;;;15.94;100.00;100497.47;20913577;28;20076;-67
2022/07/03 03:18:12;;;;;;;4.50;2.30;;;;;;;15.95;100.00;100499.19;20913300;28;20095;-68
2022/07/03 03:28:14;;;;;;;5.80;2.47;;;;;;;15.90;100.00;100517.88;20912341;28;20653;-68
2022/07/03 03:38:16;;;;;;;5.70;2.38;;;;;;;15.92;100.00;100517.81;20911499;28;20489;-68
2022/07/03 03:48:18;;;;;;;4.95;2.38;;;;;;;15.94;100.00;100533.59;20911572;28;20140;-68
2022/07/03 03:58:19;;;;;;;3.80;2.10;;;;;;;15.87;100.00;100544.38;20910951;28;20063;-68
2022/07/03 04:08:22;;;;;;;4.90;2.75;;;;;;;15.96;100.00;100552.91;20909076;28;20056;-68
2022/07/03 04:18:24;;;;;;;4.63;2.67;;;;;;;16.01;100.00;100553.59;20908634;28;20478;-68
2022/07/03 04:28:32;;;;;;;5.95;2.70;;;;;;;16.29;100.00;100550.78;20900469;28;20087;-67
2022/07/03 04:38:34;;;;;;;4.57;2.40;;;;;;;17.86;100.00;100546.31;20825980;28;20391;-68
2022/07/03 04:48:35;;;;;;;5.97;2.30;;;;;;;19.79;100.00;100542.53;20834212;28;20057;-68
2022/07/03 04:58:37;;;;;;;4.85;2.10;;;;;;;19.64;100.00;100545.03;20822636;28;20041;-68
2022/07/03 05:08:38;;;;;;;6.53;2.35;;;;;;;18.96;100.00;100547.44;20821579;28;20042;-68
2022/07/03 05:18:40;;;;;;;4.35;2.28;;;;;;;18.89;100.00;100553.16;20821541;28;20144;-68
2022/07/03 05:28:41;;;;;;;4.93;2.50;;;;;;;19.11;100.00;100556.47;20820674;28;20171;-68
2022/07/03 05:49:03;;;;;;;4.60;2.30;;;;;;;19.75;100.00;100552.44;20819141;28;20060;-68
2022/07/03 05:59:04;;;;;;;5.00;2.03;;;;;;;20.03;100.00;100554.53;20819177;28;20046;-68
2022/07/03 06:09:06;;;;;;;4.28;2.30;;;;;;;20.46;100.00;100555.75;20817564;28;20041;-67
2022/07/03 06:19:07;;;;;;;4.30;1.67;;;;;;;20.74;99.54;100560.47;20816919;28;20052;-68
2022/07/03 06:29:09;;;;;;;3.10;1.80;;;;;;;20.89;95.44;100568.53;20817590;28;20050;-68
2022/07/03 06:39:10;;;;;;;2.92;1.63;;;;;;;21.09;92.66;100570.94;20816743;28;20123;-68
2022/07/03 06:49:12;;;;;;;3.15;1.50;;;;;;;21.20;90.99;100575.66;20816571;28;20053;-68
2022/07/03 06:59:13;;;;;;;3.15;1.80;;;;;;;21.54;89.69;100560.41;20816780;28;20137;-68
2022/07/03 07:09:15;;;;;;;3.03;1.50;;;;;;;21.90;88.09;100565.38;20908518;28;20068;-68
2022/07/03 07:19:17;;;;;;;3.50;1.63;;;;;;;22.21;87.15;100564.38;20975882;28;20056;-68
2022/07/03 07:29:18;;;;;;;5.22;1.63;;;;;;;22.49;82.34;100566.19;20905103;28;20098;-68
2022/07/03 07:39:19;;;;;;;4.82;1.33;;;;;;;22.87;78.92;100560.25;20936995;28;20044;-68
2022/07/03 07:49:21;;;;;;;3.90;1.38;;;;;;;23.15;65.53;100565.53;20985631;28;20507;-68
2022/07/03 07:59:22;;;;;;;5.20;1.50;;;;;;;23.44;69.85;100560.09;20984824;28;20040;-68
2022/07/03 08:09:24;;;;;;;3.75;1.45;;;;;;;23.72;70.04;100559.97;20982108;28;20413;-68
2022/07/03 08:19:25;;;;;;;3.70;1.20;;;;;;;23.87;60.57;100562.56;20900203;28;20051;-68
2022/07/03 08:29:27;;;;;;;3.17;1.40;;;;;;;24.18;55.84;100556.78;20899764;28;20063;-68
2022/07/03 08:39:40;;;;;;;4.97;1.20;;;;;;;24.53;61.23;100545.47;20899415;28;20504;-68
2022/07/03 08:49:42;;;;;;;3.55;1.30;;;;;;;24.74;57.00;100548.41;20899243;28;20045;-68
2022/07/03 08:59:50;;;;;;;4.05;1.23;;;;;;;24.81;56.90;100550.50;20898263;28;20244;-68
2022/07/03 09:09:52;;;;;;;2.42;1.20;;;;;;;25.46;54.10;100551.13;20900687;28;20373;-68
2022/07/03 09:19:54;;;;;;;2.20;0.82;;;;;;;25.56;49.45;100541.41;20979695;28;20139;-68
2022/07/03 09:30:01;;;;;;;3.97;1.10;;;;;;;25.65;48.38;100546.09;20978674;28;20048;-69
2022/07/03 09:40:03;;;;;;;1.67;0.90;;;;;;;25.99;44.61;100539.00;20977764;28;20052;-69
2022/07/03 09:50:07;;;;;;;2.83;0.73;;;;;;;26.62;35.68;100533.19;20977466;28;20558;-68
2022/07/03 10:00:22;;;;;;;3.15;0.80;;;;;;;27.12;35.68;100529.09;20975800;28;20045;-69
2022/07/03 10:10:36;;;;;;;2.13;0.95;;;;;;;26.96;38.77;100523.22;20966550;28;20468;-68
2022/07/03 10:20:40;;;;;;;3.23;0.70;;;;;;;27.03;37.19;100508.31;20892567;28;20049;-68
2022/07/03 10:30:43;;;;;;;2.53;0.82;;;;;;;27.46;36.02;100508.28;20891334;28;20946;-68
2022/07/03 10:51:21;;;;;;;2.42;0.70;;;;;;;26.97;38.19;100511.50;20907244;28;20071;-68
2022/07/03 11:01:30;;;;;;;2.35;0.85;;;;;;;27.25;37.34;100500.19;20906281;28;20053;-68
2022/07/03 11:11:57;;;;;;;1.70;0.80;;;;;;;27.24;39.21;100487.72;20924281;28;20306;-68
2022/07/03 11:22:05;;;;;;;3.78;1.10;;;;;;;27.45;38.91;100482.34;20987811;28;20051;-68
2022/07/03 11:32:42;;;;;;;4.45;1.00;;;;;;;27.61;40.06;100463.94;20986038;28;20131;-69
2022/07/03 11:42:44;;;;;;;6.05;0.90;;;;;;;27.50;39.20;100457.75;20984358;28;20052;-68
2022/07/03 11:52:45;;;;;;;2.55;1.20;;;;;;;28.14;37.25;100446.81;20985004;28;20099;-68
2022/07/03 12:02:50;;;;;;;3.42;1.00;;;;;;;28.15;36.68;100448.50;20981611;28;20258;-68
2022/07/03 12:12:52;;;;;;;1.83;0.70;;;;;;;28.10;35.38;100448.91;20953538;28;20521;-68
2022/07/03 12:22:53;;;;;;;1.42;0.63;;;;;;;28.50;35.19;100436.44;20900682;28;20049;-69
2022/07/03 12:32:56;;;;;;;2.40;0.60;;;;;;;28.60;35.00;100429.22;20899076;28;20056;-68
2022/07/03 12:42:58;;;;;;;;;;;;;;;28.75;33.30;100418.94;20897833;28;20485;-68
2022/07/03 12:53:00;;;;;;;1.92;0.68;;;;;;;28.17;35.98;100407.97;20897240;28;19928;-69
2022/07/03 13:03:02;;;;;;;3.33;0.68;;;;;;;28.37;33.32;100404.41;20895820;28;20413;-68
2022/07/03 13:13:24;;;;;;;5.22;0.60;;;;;;;28.64;32.91;100395.63;20928057;28;20052;-69
2022/07/03 13:23:25;;;;;;;2.97;0.60;;;;;;;28.82;34.28;100398.50;20976956;28;20040;-69
2022/07/03 13:33:27;;;;;;;2.60;0.82;;;;;;;28.98;33.75;100393.41;20976681;28;20497;-69
2022/07/03 13:43:28;;;;;;;5.30;1.50;;;;;;;28.82;35.25;100385.88;20976456;28;20047;-69
2022/07/03 13:53:30;;;;;;;3.65;1.00;;;;;;;28.31;36.83;100394.97;20938351;28;20058;-68
2022/07/03 14:03:31;;;;;;;2.42;0.80;;;;;;;28.64;37.57;100390.25;20930627;28;20070;-68
2022/07/03 14:13:33;;;;;;;3.83;0.80;;;;;;;28.87;36.97;100380.88;20928617;28;20136;-68
2022/07/03 14:23:35;;;;;;;2.50;0.80;;;;;;;28.95;38.98;100376.69;20899431;28;20048;-68
2022/07/03 14:33:36;;;;;;;2.03;0.70;;;;;;;28.93;39.39;100374.06;20887917;28;20053;-69
2022/07/03 14:43:38;;;;;;;2.72;0.80;;;;;;;28.92;37.56;100372.38;20887877;28;20075;-68
2022/07/03 14:53:41;;;;;;;3.08;0.90;;;;;;;29.09;39.01;100358.22;20887208;28;20103;-69
2022/07/03 15:03:55;;;;;;;2.13;0.70;;;;;;;29.50;36.17;100360.66;20850715;28;1037234;-69
2022/07/03 15:14:01;;;;;;;2.42;1.00;;;;;;;29.64;35.18;100346.72;20903916;28;20482;-69
2022/07/03 15:24:06;;;;;;;1.17;0.68;;;;;;;29.80;32.84;100333.47;20894772;28;20110;-69
2022/07/03 15:34:07;;;;;;;3.95;0.70;;;;;;;29.68;33.25;100331.94;20906174;28;20053;-68
2022/07/03 15:44:27;;;;;;;2.20;1.02;;;;;;;30.12;32.90;100330.28;20906490;28;20041;-68
2022/07/03 15:54:51;;;;;;;2.22;0.70;;;;;;;30.18;33.17;100312.63;20905200;28;20540;-68
2022/07/03 16:05:13;;;;;;;2.35;0.70;;;;;;;30.11;33.46;100300.72;20903600;28;20053;-69
2022/07/03 16:15:16;;;;;;;2.33;0.73;;;;;;;30.36;32.97;100300.00;20952338;28;20048;-68
2022/07/03 16:25:18;;;;;;;3.13;1.02;;;;;;;30.53;33.33;100292.91;20984605;28;20052;-68
2022/07/03 16:35:34;;;;;;;;;;;;;;;30.82;33.38;100273.75;20983753;28;20056;-68
2022/07/03 16:45:36;;;;;;;2.08;0.80;;;;;;;30.43;32.70;100288.59;20984476;28;19925;-69
2022/07/03 16:55:37;;;;;;;2.37;0.80;;;;;;;30.77;33.61;100276.06;20983645;28;20052;-68
2022/07/03 17:05:39;;;;;;;2.58;0.90;;;;;;;30.41;33.40;100283.31;20981817;28;20459;-68
2022/07/03 17:15:43;;;;;;;2.47;0.73;;;;;;;30.71;34.69;100268.59;20929602;28;20052;-68
2022/07/03 17:25:56;;;;;;;2.45;0.63;;;;;;;30.72;34.84;100264.88;20897897;28;20072;-68
2022/07/03 17:36:06;;;;;;;2.28;0.85;;;;;;;30.37;34.60;100258.47;20895454;28;20068;-68
2022/07/03 17:46:09;;;;;;;4.28;0.85;;;;;;;30.08;37.22;100252.41;20896736;28;20409;-68
2022/07/03 17:56:12;;;;;;;;;;;;;;;29.86;36.99;100248.31;20896843;28;20057;-68
2022/07/03 18:06:22;;;;;;;6.73;1.40;;;;;;;29.82;36.48;100242.38;20909281;28;19926;-68
2022/07/03 18:16:32;;;;;;;3.42;0.93;;;;;;;29.73;38.10;100251.38;20917260;28;20408;-68
2022/07/03 18:26:46;;;;;;;4.15;1.00;;;;;;;29.56;39.10;100242.25;20894830;28;20095;-69
2022/07/03 18:36:48;;;;;;;2.45;0.95;;;;;;;29.18;40.31;100216.28;20888959;28;20063;-68
2022/07/03 18:46:53;;;;;;;3.03;0.80;;;;;;;28.58;42.89;100224.63;20894453;28;20053;-69
2022/07/03 18:57:02;;;;;;;1.20;0.80;;;;;;;27.71;48.57;100223.72;20892272;28;20461;-69
2022/07/03 19:07:09;;;;;;;3.78;1.00;;;;;;;27.00;53.24;100223.72;20901238;28;20511;-69
2022/07/03 19:17:13;;;;;;;2.60;0.93;;;;;;;26.51;56.47;100223.41;20972536;28;20063;-69
2022/07/03 19:27:16;;;;;;;2.15;1.10;;;;;;;25.93;58.56;100238.16;20987865;28;20049;-69
2022/07/03 19:37:17;;;;;;;3.20;0.95;;;;;;;24.91;68.85;100250.69;20933983;28;20041;-68
2022/07/03 19:47:20;;;;;;;1.83;0.95;;;;;;;24.52;71.19;100259.97;20905302;28;20049;-68
2022/07/03 19:57:27;;;;;;;3.38;0.93;;;;;;;24.30;71.97;100271.44;20901586;28;20704;-68
2022/07/03 20:07:28;;;;;;;2.03;1.10;;;;;;;24.06;75.02;100280.31;20896745;28;20056;-68
2022/07/03 20:17:31;;;;;;;3.35;1.42;;;;;;;23.76;76.94;100295.91;20966725;28;20060;-68
2022/07/03 20:27:32;;;;;;;3.15;1.50;;;;;;;23.36;81.65;100332.63;20979664;28;20548;-69
2022/07/03 20:37:35;;;;;;;4.05;1.50;;;;;;;23.56;80.13;100348.09;20981421;28;20054;-68
2022/07/03 20:47:37;;;;;;;3.63;1.20;;;;;;;23.39;80.85;100364.47;20981136;28;20041;-69
2022/07/03 20:57:38;;;;;;;3.58;1.13;;;;;;;23.12;74.34;100378.75;20980707;28;20055;-68
2022/07/03 21:07:40;;;;;;;5.03;1.10;;;;;;;22.90;69.48;100399.84;20979224;28;20041;-69
2022/07/03 21:17:41;;;;;;;4.22;1.13;;;;;;;22.86;66.96;100411.69;20910083;28;20060;-69
2022/07/03 21:27:43;;;;;;;2.35;1.10;;;;;;;22.70;68.08;100422.50;20894994;28;20053;-69
2022/07/03 21:37:44;;;;;;;4.72;0.90;;;;;;;22.60;66.09;100432.06;20892366;28;20432;-70
2022/07/03 21:47:46;;;;;;;2.28;1.00;;;;;;;22.40;67.08;100436.88;20893739;28;20064;-69
2022/07/03 21:57:47;;;;;;;2.40;1.00;;;;;;;22.02;72.48;100439.28;20892685;28;20463;-69
2022/07/03 22:07:49;;;;;;;4.85;1.50;;;;;;;21.84;70.49;100446.63;20897587;28;20486;-68
2022/07/03 22:17:51;;;;;;;1.38;0.98;;;;;;;21.83;71.22;100460.03;20900197;28;20053;-69
2022/07/03 22:27:54;;;;;;;3.58;1.15;;;;;;;21.75;72.41;100472.06;20898989;28;20049;-69
2022/07/03 22:37:55;;;;;;;5.13;1.45;;;;;;;21.78;74.46;100490.50;20907617;28;20390;-69
2022/07/03 22:47:57;;;;;;;2.92;1.38;;;;;;;21.64;76.76;100502.94;20915823;28;20049;-68
2022/07/03 22:57:58;;;;;;;5.40;1.40;;;;;;;21.55;76.45;100509.69;20915226;28;20073;-69
2022/07/03 23:08:00;;;;;;;4.30;1.45;;;;;;;21.60;72.48;100523.59;20913289;28;20049;-68
2022/07/03 23:18:02;;;;;;;3.78;1.42;;;;;;;21.51;72.99;100518.81;20913761;28;20067;-69
2022/07/03 23:28:03;;;;;;;3.38;1.23;;;;;;;21.45;73.57;100535.16;20912011;28;20049;-69
2022/07/03 23:38:05;;;;;;;4.35;1.63;;;;;;;21.44;73.84;100549.44;20911186;28;20041;-69
2022/07/03 23:48:07;;;;;;;5.03;1.30;;;;;;;21.23;74.15;100549.69;20910666;28;20060;-68
2022/07/03 23:58:09;;;;;;;2.70;1.20;;;;;;;21.04;75.48;100551.69;20910429;28;20049;-69
